Flight Track Log - Related Links

Times and Time Zones

All times are in EDT time to prevent confusion due to time zone crossing. See the JBU301 flight status page for this flight to view local times or setup timezone preferences in your user account.

Time Position Orientation Groundspeed Altitude Reporting Facility
EDT Latitude Longitude Course Direction KTS MPH feet Rate Location/Type
Fri 03:03:22 PM 40.6111 -73.7644 146° Southeast 164 189 1,300  Level New York Center
Fri 03:04:23 PM 40.5836 -73.7031 121° Southeast 187 215 2,000 1,736 Climbing New York Center
Fri 03:05:00 PM 40.3540 -73.5167 180° South  Level FlightAware Approximate
Fri 03:05:23 PM 40.5486 -73.6006 114° Southeast 254 292 4,800  Level New York Center
Fri 03:06:00 PM 40.2672 -73.4336 159° South  Level FlightAware Approximate
Fri 03:06:23 PM 40.5136 -73.4981 114° Southeast 296 341 7,700  Level New York Center
Fri 03:07:00 PM 40.1814 -73.3371 146° Southeast  Level FlightAware Approximate
Fri 03:07:23 PM 40.4439 -73.4492 152° Southeast 289 333 10,200  Level New York Center
Fri 03:08:00 PM 40.0866 -73.2529 146° Southeast  Level FlightAware Approximate
Fri 03:08:23 PM 40.3486 -73.4261 170° South 282 325 11,600  Level New York Center
Fri 03:09:24 PM 40.2533 -73.3981 167° South 320 368 13,500 1,884 Climbing New York Center
Fri 03:10:24 PM 40.1600 -73.3728 168° South 371 427 15,400 1,787 Climbing New York Center
Fri 03:12:32 PM 39.9419 -73.4375 193° South 377 434 19,100 1,723 Climbing Washington Center
Fri 03:13:32 PM 39.8539 -73.5239 217° Southwest 372 428 20,800 1,488 Climbing Washington Center
Fri 03:14:33 PM 39.7636 -73.6047 215° Southwest 391 450 22,100 1,311 Climbing Washington Center
Fri 03:15:31 PM 39.6669 -73.6883 214° Southwest 414 476 23,400 1,311 Climbing Washington Center
Fri 03:16:32 PM 39.5706 -73.7717 214° Southwest 414 476 24,700 1,230 Climbing Washington Center
Fri 03:17:33 PM 39.4736 -73.8547 213° Southwest 419 482 25,900 1,160 Climbing Washington Center
Fri 03:18:31 PM 39.3708 -73.9406 213° Southwest 428 493 27,000 1,017 Climbing Washington Center
Fri 03:19:31 PM 39.2697 -74.0258 213° Southwest 439 505 27,900 885 Climbing Washington Center
Fri 03:20:33 PM 39.1667 -74.1139 214° Southwest 439 505 28,800 934 Climbing Washington Center
Fri 03:21:33 PM 39.0614 -74.2017 213° Southwest 444 511 29,800 1,068 Climbing Washington Center
Fri 03:22:31 PM 38.9561 -74.2917 214° Southwest 449 517 30,900 1,109 Climbing Washington Center
Fri 03:23:32 PM 38.8508 -74.3789 213° Southwest 454 522 32,000 1,131 Climbing Washington Center
Fri 03:24:33 PM 38.7453 -74.4658 213° Southwest 454 522 33,200 1,160 Climbing Washington Center
Fri 03:25:31 PM 38.6461 -74.5497 213° Southwest 448 516 34,300 1,068 Climbing Washington Center
Fri 03:26:31 PM 38.5425 -74.6336 212° Southwest 448 516 35,300 843 Climbing Washington Center
Fri 03:27:32 PM 38.4389 -74.7197 213° Southwest 448 516 36,000 344 Climbing Washington Center
Fri 03:28:33 PM 38.3353 -74.8056 213° Southwest 448 516 36,000  Level Washington Center
Fri 03:29:31 PM 38.2314 -74.8914 213° Southwest 448 516 36,000  Level Washington Center
Fri 03:30:32 PM 38.1297 -74.9794 214° Southwest 453 521 36,000  Level Washington Center
Fri 03:31:33 PM 38.0258 -75.0644 213° Southwest 453 521 36,000  Level Washington Center
Fri 03:32:31 PM 37.9200 -75.1494 212° Southwest 453 521 36,000  Level Washington Center
Fri 03:33:32 PM 37.8075 -75.2158 205° Southwest 453 521 36,000  Level Washington Center
Fri 03:34:32 PM 37.6931 -75.2822 205° Southwest 453 521 36,000  Level Washington Center
Fri 03:35:33 PM 37.5783 -75.3456 204° Southwest 453 521 36,000  Level Washington Center
Fri 03:36:31 PM 37.4639 -75.4114 205° Southwest 453 521 36,000  Level Washington Center
Fri 03:37:32 PM 37.3492 -75.4717 203° Southwest 458 527 36,000 -49 Level Washington Center
Fri 03:38:33 PM 37.2367 -75.5372 205° Southwest 458 527 35,900  Descending Washington Center
Fri 03:39:31 PM 37.1219 -75.5997 203° Southwest 458 527 36,000 50 Climbing Washington Center
Fri 03:40:32 PM 37.0072 -75.6622 204° Southwest 458 527 36,000  Level Washington Center
Fri 03:41:32 PM 36.8925 -75.7217 203° Southwest 458 527 36,000  Level Washington Center
Fri 03:42:33 PM 36.7631 -75.7889 203° Southwest 458 527 36,000  Level Washington Center
Fri 03:43:31 PM 36.6461 -75.8561 205° Southwest 458 527 36,000  Level Washington Center
Fri 03:44:32 PM 36.5331 -75.9203 205° Southwest 458 527 36,000 -49 Level Washington Center
Fri 03:45:33 PM 36.4203 -75.9817 204° Southwest 458 527 35,900  Descending Washington Center
Fri 03:46:31 PM 36.3053 -76.0431 203° Southwest 453 521 36,000 50 Climbing Washington Center
Fri 03:47:32 PM 36.1925 -76.1042 204° Southwest 453 521 36,000  Level Washington Center
Fri 03:48:32 PM 36.0775 -76.1650 203° Southwest 453 521 36,000  Level Washington Center
Fri 03:49:33 PM 35.9644 -76.2283 204° Southwest 453 521 36,000 -50 Level Washington Center
Fri 03:50:31 PM 35.8514 -76.2864 203° Southwest 448 516 35,900  Descending Washington Center
Fri 03:51:31 PM 35.7364 -76.3444 202° Southwest 448 516 36,000 50 Climbing Washington Center
Fri 03:52:32 PM 35.6233 -76.4097 205° Southwest 448 516 36,000  Level Washington Center
Fri 03:53:32 PM 35.5061 -76.4672 202° Southwest 448 516 36,000  Level Washington Center
Fri 03:54:34 PM 35.3928 -76.5297 204° Southwest 448 516 36,000  Level Washington Center
Fri 03:55:31 PM 35.2903 -76.5844 204° Southwest 443 510 36,000  Level Washington Center
Fri 03:56:33 PM 35.1792 -76.6442 204° Southwest 443 510 36,000  Level Washington Center
Fri 03:57:31 PM 35.0511 -76.7108 203° Southwest 443 510 36,000 -50 Level Washington Center
Fri 03:58:32 PM 34.9358 -76.7678 202° Southwest 443 510 35,900  Descending Washington Center
Fri 03:59:32 PM 34.8206 -76.8292 204° Southwest 448 516 36,000 50 Climbing Washington Center
Fri 04:00:33 PM 34.7053 -76.8881 203° Southwest 448 516 36,000  Level Washington Center
Fri 04:01:34 PM 34.5856 -76.9417 200° South 453 521 36,000  Level Washington Center
Fri 04:02:31 PM 34.4603 -76.9675 190° South 453 521 36,000  Level Washington Center
Fri 04:03:32 PM 34.3367 -77.0006 192° South 453 521 36,000  Level Washington Center
Fri 04:04:32 PM 34.2133 -77.0286 191° South 453 521 36,000  Level Washington Center
Fri 04:05:32 PM 34.0919 -77.0667 195° South 453 521 36,000  Level Washington Center
Fri 04:06:32 PM 33.9828 -77.1047 196° South 453 521 36,000  Level Washington Center
Fri 04:07:32 PM 33.8614 -77.1450 195° South 453 521 36,000 -50 Level Washington Center
Fri 04:08:33 PM 33.7378 -77.1853 195° South 460 529 35,900  Descending Washington Center
Fri 04:10:42 PM 33.4739 -77.2856 198° South 450 518 36,000 32 Climbing Jacksonville Center
Fri 04:11:42 PM 33.3572 -77.3325 199° South 455 524 36,000 -50 Level Jacksonville Center
Fri 04:12:42 PM 33.2361 -77.3822 199° South 455 524 35,900 -50 Descending Jacksonville Center
Fri 04:13:42 PM 33.1239 -77.4389 203° Southwest 455 524 35,900 50 Level Jacksonville Center
Fri 04:14:42 PM 33.0119 -77.5028 206° Southwest 450 518 36,000 50 Climbing Jacksonville Center
Fri 04:15:42 PM 32.9000 -77.5711 207° Southwest 450 518 36,000  Level Jacksonville Center
Fri 04:16:42 PM 32.7881 -77.6372 206° Southwest 455 524 36,000  Level Jacksonville Center
Fri 04:17:42 PM 32.6739 -77.7031 206° Southwest 455 524 36,000 -50 Level Jacksonville Center
Fri 04:18:42 PM 32.5639 -77.7683 207° Southwest 455 524 35,900  Descending Jacksonville Center
Fri 04:19:42 PM 32.4494 -77.8314 205° Southwest 455 524 36,000  Climbing Jacksonville Center
Fri 04:20:42 PM 32.3353 -77.9017 207° Southwest 455 524 35,900  Descending Jacksonville Center
Fri 04:21:42 PM 32.2231 -77.9644 205° Southwest 455 524 36,000 50 Climbing Jacksonville Center
Fri 04:22:42 PM 32.1108 -78.0317 207° Southwest 455 524 36,000  Level Jacksonville Center
Fri 04:23:42 PM 31.9942 -78.0892 203° Southwest 455 524 36,000 550 Level Jacksonville Center
Fri 04:24:42 PM 31.8814 -78.1442 202° Southwest 450 518 37,100 1,000 Climbing Jacksonville Center
Fri 04:25:42 PM 31.7667 -78.2011 203° Southwest 450 518 38,000 450 Climbing Jacksonville Center
Fri 04:26:42 PM 31.6439 -78.2708 206° Southwest 455 524 38,000  Level Jacksonville Center
Fri 04:27:42 PM 31.5289 -78.3228 201° Southwest 458 527 38,000  Level Jacksonville Center
Fri 04:28:42 PM 31.4078 -78.3847 204° Southwest 465 535 38,000  Level Jacksonville Center
Fri 04:29:42 PM 31.2931 -78.4414 203° Southwest 457 526 38,000  Level Jacksonville Center
Fri 04:30:42 PM 31.1800 -78.4953 202° Southwest 453 521 38,000  Level Jacksonville Center
Fri 04:31:42 PM 31.0631 -78.5517 202° Southwest 454 522 38,000  Level Jacksonville Center
Fri 04:32:42 PM 30.9564 -78.6050 203° Southwest 457 526 38,000  Level Jacksonville Center
Fri 04:33:42 PM 30.8433 -78.6633 204° Southwest 457 526 38,000  Level Jacksonville Center
Fri 04:35:53 PM 30.5903 -78.7853 203° Southwest 475 547 38,000  Level Miami Center
Fri 04:36:53 PM 30.4750 -78.8408 203° Southwest 475 547 38,000  Level Miami Center
Fri 04:37:53 PM 30.3556 -78.8964 202° Southwest 480 552 38,000 -50 Level Miami Center
Fri 04:38:53 PM 30.2461 -78.9519 204° Southwest 467 537 37,900  Descending Miami Center
Fri 04:39:53 PM 30.1286 -79.0047 201° Southwest 453 521 38,000 50 Climbing Miami Center
Fri 04:40:53 PM 30.0025 -79.0742 205° Southwest 448 516 38,000  Level Miami Center
Fri 04:41:53 PM 29.8869 -79.1267 202° Southwest 453 521 38,000  Level Miami Center
Fri 04:42:53 PM 29.7633 -79.1694 197° South 460 529 38,000  Level Miami Center
Fri 04:43:53 PM 29.6397 -79.2028 193° South 460 529 38,000  Level Miami Center
Fri 04:44:53 PM 29.5161 -79.2333 192° South 460 529 38,000  Level Miami Center
Fri 04:45:53 PM 29.3906 -79.2617 191° South 460 529 38,000  Level Miami Center
Fri 04:46:53 PM 29.2692 -79.2922 192° South 460 529 38,000  Level Miami Center
Fri 04:47:53 PM 29.1475 -79.3275 194° South 455 524 38,000  Level Miami Center
Fri 04:48:53 PM 29.0239 -79.3581 192° South 455 524 38,000  Level Miami Center
Fri 04:49:53 PM 28.8983 -79.3861 191° South 455 524 38,000  Level Miami Center
Fri 04:50:53 PM 28.7725 -79.4164 192° South 455 524 38,000  Level Miami Center
Fri 04:51:53 PM 28.6447 -79.4464 192° South 455 524 38,000  Level Miami Center
Fri 04:52:53 PM 28.5208 -79.4814 194° South 455 524 38,000  Level Miami Center
Fri 04:53:53 PM 28.3931 -79.5092 191° South 460 529 38,000  Level Miami Center
Fri 04:54:53 PM 28.2672 -79.5417 193° South 465 535 38,000  Level Miami Center
Fri 04:55:53 PM 28.1436 -79.5717 192° South 465 535 38,000 -250 Level Miami Center
Fri 04:56:53 PM 28.0156 -79.6039 193° South 471 542 37,500 -1,150 Descending Miami Center
Fri 04:57:53 PM 27.8878 -79.6336 192° South 471 542 35,700 -1,950 Descending Miami Center
Fri 04:58:53 PM 27.7622 -79.6447 184° South 460 529 33,600 -2,500 Descending Miami Center
Fri 04:59:53 PM 27.6411 -79.6417 179° South 477 549 30,700 -2,800 Descending Miami Center
Fri 05:00:53 PM 27.5094 -79.6431 181° South 482 555 28,000 -2,700 Descending Miami Center
Fri 05:01:53 PM 27.3633 -79.6419 180° South 474 545 25,300 -2,600 Descending Miami Center
Fri 05:02:53 PM 27.2361 -79.6389 179° South 468 539 22,800 -2,400 Descending Miami Center
Fri 05:03:53 PM 27.1150 -79.6383 180° South 445 512 20,500 -2,300 Descending Miami Center
Fri 05:04:53 PM 27.0106 -79.6358 179° South 424 488 18,200 -2,300 Descending Miami Center
Fri 05:05:53 PM 26.8978 -79.6356 180° South 414 476 15,900 -2,450 Descending Miami Center
Fri 05:06:53 PM 26.7928 -79.6656 194° South 391 450 13,300 -2,400 Descending Miami Center
Fri 05:07:53 PM 26.6939 -79.7097 202° Southwest 378 435 11,100 -1,450 Descending Miami Center
Fri 05:08:53 PM 26.6114 -79.7519 205° Southwest 352 405 10,400 -757 Descending Miami Center
Fri 05:09:44 PM 26.5483 -79.7806 202° Southwest 271 312 9,700 -958 Descending Miami Center
Fri 05:10:52 PM 26.4767 -79.8158 204° Southwest 254 292 8,500 -791 Descending Miami Center
Fri 05:11:53 PM 26.4050 -79.8489 202° Southwest 277 319 8,000 -248 Descending Miami Center
Fri 05:12:53 PM 26.3411 -79.8961 214° Southwest 273 314 8,000  Level Miami Center
Fri 05:13:53 PM 26.2858 -79.9503 221° Southwest 275 316 8,000 -48 Level Miami Center
Fri 05:14:57 PM 26.2303 -80.0042 221° Southwest 246 283 7,900 -550 Descending Miami Center
Fri 05:15:53 PM 26.1856 -80.0494 222° Southwest 249 287 6,900 -517 Descending Miami Center
Fri 05:16:53 PM 26.1589 -80.1206 247° West 244 281 6,900 -448 Level Miami Center
Fri 05:18:07 PM 26.1467 -80.2033 261° West 217 250 5,900 -900 Descending Miami Center
Fri 05:18:53 PM 26.1514 -80.2592 275° West 225 259 5,100 -934 Descending Miami Center
Fri 05:20:09 PM 26.1478 -80.3331 267° West 191 220 4,000 -462 Descending Miami Center
Fri 05:21:16 PM 26.1400 -80.3953 262° West 175 201 4,000  Level Miami Center
Fri 05:22:12 PM 26.0961 -80.3964 181° South 175 201 4,000 -462 Level Miami Center
Fri 05:23:13 PM 26.0742 -80.3494 117° Southeast 181 208 3,100 -934 Descending Miami Center
Fri 05:24:14 PM 26.0756 -80.2939 88° East 185 213 2,100 -885 Descending Miami Center
Fri 05:25:15 PM 26.0747 -80.2431 91° East 162 186 1,300 -732 Descending Miami Center
Fri 05:26:17 PM 26.0756 -80.2014 89° East 126 145 600 -677 Descending Miami Center
Fri 05:28:00 PM 26.0667 -80.1500 103° East  Level FlightAware Approximate
Fri 05:35:00 PM 26.0726 -80.1527 103° East  Level Estimated

Login

Don't have an account? Register now (free) for customized features, flight alerts, and more!